Time;durP1;ratioP1;P1;durP2;ratioP2;P2;SDS_P1;SDS_P2;PMS_P1;PMS_P2;Temp;Humidity;BMP_temperature;BMP_pressure;BME280_temperature;BME280_humidity;BME280_pressure;Samples;Min_cycle;Max_cycle;Signal;HPM_P1;HPM_P2
2022/01/19 00:01:19;;;;;;;67.35;30.92;;;;;;;;;;4994747;28;20486;-63
2022/01/19 00:03:45;;;;;;;66.05;30.40;;;;;;;;;;5009096;28;20034;-63
2022/01/19 00:06:11;;;;;;;72.53;32.75;;;;;;;;;;4999649;28;20033;-63
2022/01/19 00:08:38;;;;;;;66.40;31.85;;;;;;;;;;5002214;28;20060;-63
2022/01/19 00:11:04;;;;;;;70.35;31.90;;;;;;;;;;4993216;28;20030;-63
2022/01/19 00:13:30;;;;;;;62.08;28.70;;;;;;;;;;4993782;28;20038;-63
2022/01/19 00:15:56;;;;;;;63.47;29.05;;;;;;;;;;4998440;28;20081;-63
2022/01/19 00:18:24;;;;;;;77.90;28.85;;;;;;;;;;4992899;28;20053;-63
2022/01/19 00:20:51;;;;;;;78.57;30.15;;;;;;;;;;4993071;28;20040;-63
2022/01/19 00:23:18;;;;;;;74.88;31.38;;;;;;;;;;4992919;28;20467;-63
2022/01/19 00:25:45;;;;;;;79.22;32.42;;;;;;;;;;4993009;28;20057;-63
2022/01/19 00:28:11;;;;;;;74.90;31.30;;;;;;;;;;4993380;28;20030;-63
2022/01/19 00:30:37;;;;;;;71.45;31.40;;;;;;;;;;5005409;28;20030;-63
2022/01/19 00:33:05;;;;;;;74.15;31.27;;;;;;;;;;4994744;28;20386;-63
2022/01/19 00:35:31;;;;;;;64.95;28.95;;;;;;;;;;4993630;28;20125;-63
2022/01/19 00:37:57;;;;;;;70.25;29.65;;;;;;;;;;5003133;28;20056;-63
2022/01/19 00:40:23;;;;;;;62.50;28.83;;;;;;;;;;4975062;28;20149;-63
2022/01/19 00:42:51;;;;;;;69.43;30.05;;;;;;;;;;4975127;28;20034;-63
2022/01/19 00:45:18;;;;;;;66.00;28.60;;;;;;;;;;4993129;28;20030;-63
2022/01/19 00:47:44;;;;;;;62.53;28.70;;;;;;;;;;4974739;28;20122;-63
2022/01/19 00:50:11;;;;;;;68.60;28.50;;;;;;;;;;4975348;28;20030;-63
2022/01/19 00:52:38;;;;;;;64.82;28.75;;;;;;;;;;5004480;28;20076;-63
2022/01/19 00:55:08;;;;;;;69.10;29.45;;;;;;;;;;4975015;28;20038;-63
2022/01/19 00:57:35;;;;;;;67.40;29.20;;;;;;;;;;4992599;28;20038;-63
2022/01/19 01:00:03;;;;;;;66.05;31.67;;;;;;;;;;4975479;28;20602;-63
2022/01/19 01:02:31;;;;;;;62.55;29.35;;;;;;;;;;4974931;28;20034;-63
2022/01/19 01:04:57;;;;;;;61.90;30.30;;;;;;;;;;4992439;28;20471;-63
2022/01/19 01:07:23;;;;;;;65.10;30.17;;;;;;;;;;5001042;28;20026;-63
2022/01/19 01:09:49;;;;;;;71.72;31.00;;;;;;;;;;4974857;28;20029;-63
2022/01/19 01:12:22;;;;;;;67.90;30.58;;;;;;;;;;4992829;28;20438;-63
2022/01/19 01:20:19;;;;;;;67.93;28.42;;;;;;;;;;4996270;28;20038;-63
2022/01/19 01:22:46;;;;;;;62.45;29.42;;;;;;;;;;4978362;28;20057;-63
2022/01/19 01:25:12;;;;;;;69.93;29.38;;;;;;;;;;4978515;28;20046;-63
2022/01/19 01:27:38;;;;;;;68.80;30.00;;;;;;;;;;4996272;28;20022;-63
2022/01/19 01:30:06;;;;;;;64.22;29.42;;;;;;;;;;4958938;28;20031;-63
2022/01/19 01:32:32;;;;;;;61.85;28.80;;;;;;;;;;4958833;28;20456;-63
2022/01/19 01:34:58;;;;;;;65.68;29.05;;;;;;;;;;4962478;28;20026;-63
2022/01/19 01:37:24;;;;;;;61.40;28.58;;;;;;;;;;4978386;28;20113;-63
2022/01/19 01:39:51;;;;;;;62.85;28.95;;;;;;;;;;4977951;28;20073;-63
2022/01/19 01:42:18;;;;;;;61.30;28.45;;;;;;;;;;4978192;28;20397;-63
2022/01/19 01:44:47;;;;;;;58.20;26.92;;;;;;;;;;4995457;28;20030;-63
2022/01/19 01:47:16;;;;;;;65.72;27.65;;;;;;;;;;4977913;28;20031;-63
2022/01/19 01:53:16;;;;;;;61.53;27.30;;;;;;;;;;4977920;28;20447;-63
2022/01/19 01:55:17;;;;;;;59.38;26.63;;;;;;;;;;4996524;28;20034;-63
2022/01/19 01:57:43;;;;;;;61.67;27.73;;;;;;;;;;4997006;28;20553;-63
2022/01/19 02:00:12;;;;;;;53.15;25.25;;;;;;;;;;4990949;28;20038;-63
2022/01/19 02:02:45;;;;;;;56.40;25.13;;;;;;;;;;4995322;28;20545;-63
2022/01/19 02:05:14;;;;;;;52.60;24.80;;;;;;;;;;4980822;28;20030;-63
2022/01/19 02:16:17;;;;;;;51.72;25.50;;;;;;;;;;4973186;28;20136;-63
2022/01/19 02:24:17;;;;;;;54.08;25.20;;;;;;;;;;4954361;28;20118;-63
2022/01/19 02:26:53;;;;;;;51.97;24.10;;;;;;;;;;4952680;28;20130;-63
2022/01/19 02:30:06;;;;;;;60.33;25.35;;;;;;;;;;4953889;29;20039;-63
2022/01/19 02:40:27;;;;;;;54.90;25.50;;;;;;;;;;4953527;29;20055;-63
2022/01/19 02:50:56;;;;;;;42.08;21.65;;;;;;;;;;5010666;28;20077;-63
2022/01/19 02:53:22;;;;;;;54.88;24.38;;;;;;;;;;5000977;28;20125;-63
2022/01/19 02:55:48;;;;;;;50.80;24.00;;;;;;;;;;4976630;28;20030;-63
2022/01/19 02:58:18;;;;;;;53.08;24.30;;;;;;;;;;4994102;28;20479;-63
2022/01/19 03:08:59;;;;;;;50.65;23.25;;;;;;;;;;4957275;28;20035;-63
2022/01/19 03:11:25;;;;;;;53.55;24.35;;;;;;;;;;4997814;28;20394;-63
2022/01/19 03:13:53;;;;;;;57.28;23.30;;;;;;;;;;4995587;28;20383;-63
2022/01/19 03:16:20;;;;;;;48.30;23.00;;;;;;;;;;4996154;28;20034;-63
2022/01/19 03:18:47;;;;;;;55.72;25.63;;;;;;;;;;4967402;28;20112;-63
2022/01/19 03:21:13;;;;;;;53.13;24.98;;;;;;;;;;4960495;28;20030;-63
2022/01/19 03:23:39;;;;;;;53.40;24.02;;;;;;;;;;4976270;28;20031;-63
2022/01/19 03:26:06;;;;;;;53.25;24.58;;;;;;;;;;4975949;28;20467;-63
2022/01/19 03:28:33;;;;;;;51.95;24.63;;;;;;;;;;4976169;28;20034;-63
2022/01/19 03:31:00;;;;;;;55.45;25.38;;;;;;;;;;4972558;28;20031;-63
2022/01/19 03:33:27;;;;;;;56.75;27.20;;;;;;;;;;4993789;28;20072;-63
2022/01/19 03:35:53;;;;;;;48.60;24.23;;;;;;;;;;4975745;28;20034;-63
2022/01/19 03:38:20;;;;;;;50.42;24.08;;;;;;;;;;4976392;28;20485;-63
2022/01/19 03:40:47;;;;;;;53.33;25.88;;;;;;;;;;4975887;28;20089;-63
2022/01/19 03:43:14;;;;;;;54.80;25.65;;;;;;;;;;4975772;28;20037;-63
2022/01/19 03:46:12;;;;;;;51.67;25.48;;;;;;;;;;4975761;28;20022;-63
2022/01/19 03:48:56;;;;;;;48.88;23.63;;;;;;;;;;4977739;28;20053;-63
2022/01/19 03:51:23;;;;;;;55.22;25.83;;;;;;;;;;4976180;28;20117;-63
2022/01/19 03:53:50;;;;;;;50.88;24.38;;;;;;;;;;4960882;28;20411;-63
2022/01/19 03:56:17;;;;;;;47.58;22.98;;;;;;;;;;4956174;28;20118;-63
2022/01/19 03:58:44;;;;;;;46.47;22.30;;;;;;;;;;4956980;28;20095;-63
2022/01/19 04:01:10;;;;;;;52.97;24.35;;;;;;;;;;4995098;28;20034;-63
2022/01/19 04:06:17;;;;;;;53.80;23.25;;;;;;;;;;4975265;28;20042;-63
2022/01/19 04:08:43;;;;;;;52.83;26.42;;;;;;;;;;4975786;28;20054;-63
2022/01/19 04:11:09;;;;;;;53.25;25.77;;;;;;;;;;4975142;28;20030;-63
2022/01/19 04:14:00;;;;;;;53.50;25.27;;;;;;;;;;4975893;28;20034;-63
2022/01/19 04:16:26;;;;;;;55.13;24.30;;;;;;;;;;4975945;28;20042;-63
2022/01/19 04:19:01;;;;;;;52.70;25.42;;;;;;;;;;4982427;28;20033;-63
2022/01/19 04:21:28;;;;;;;54.50;23.33;;;;;;;;;;4995047;28;20034;-63
2022/01/19 04:23:54;;;;;;;50.08;25.13;;;;;;;;;;4995033;28;20026;-63
2022/01/19 04:26:20;;;;;;;54.72;24.77;;;;;;;;;;4990547;28;20454;-63
2022/01/19 04:28:47;;;;;;;47.53;23.52;;;;;;;;;;4971719;28;20078;-63
2022/01/19 04:31:14;;;;;;;48.75;24.27;;;;;;;;;;4972308;28;20038;-63
2022/01/19 04:33:43;;;;;;;52.67;24.83;;;;;;;;;;4991028;28;20026;-63
2022/01/19 04:36:28;;;;;;;53.78;24.50;;;;;;;;;;4975268;28;20038;-63
2022/01/19 05:13:51;;;;;;;54.40;23.60;;;;;;;;;;4972919;28;20491;-63
2022/01/19 05:16:20;;;;;;;55.08;23.50;;;;;;;;;;4980487;28;20087;-63
2022/01/19 05:18:50;;;;;;;54.47;24.55;;;;;;;;;;4998276;28;20080;-63
2022/01/19 05:21:18;;;;;;;54.75;24.30;;;;;;;;;;4997921;28;20040;-63
2022/01/19 05:24:06;;;;;;;50.40;23.77;;;;;;;;;;5015510;28;20053;-63
2022/01/19 05:26:36;;;;;;;52.63;25.40;;;;;;;;;;4986990;28;20026;-63
2022/01/19 05:29:03;;;;;;;55.67;23.92;;;;;;;;;;4978413;28;20065;-63
2022/01/19 05:31:29;;;;;;;51.65;24.80;;;;;;;;;;4978595;28;20030;-63
2022/01/19 05:33:55;;;;;;;45.80;22.02;;;;;;;;;;4978857;28;20049;-63
2022/01/19 05:36:22;;;;;;;54.08;23.73;;;;;;;;;;4978329;28;20390;-63
2022/01/19 05:39:16;;;;;;;47.53;22.88;;;;;;;;;;4977558;28;20042;-63
2022/01/19 05:41:53;;;;;;;50.63;23.92;;;;;;;;;;4978524;28;20038;-63
2022/01/19 05:44:19;;;;;;;47.63;23.02;;;;;;;;;;4981060;28;20021;-63
2022/01/19 05:46:47;;;;;;;45.78;23.88;;;;;;;;;;4986517;28;20023;-63
2022/01/19 05:49:13;;;;;;;50.50;23.33;;;;;;;;;;4977978;28;20088;-63
2022/01/19 05:51:39;;;;;;;46.10;21.88;;;;;;;;;;4977830;28;20076;-63
2022/01/19 05:54:06;;;;;;;44.72;22.13;;;;;;;;;;4975381;28;20532;-63
2022/01/19 05:56:33;;;;;;;50.20;22.50;;;;;;;;;;4985610;28;20091;-63
2022/01/19 05:59:11;;;;;;;47.00;22.92;;;;;;;;;;4994859;28;20049;-63
2022/01/19 06:01:38;;;;;;;52.50;26.20;;;;;;;;;;4975426;28;20383;-63
2022/01/19 06:04:05;;;;;;;54.75;28.05;;;;;;;;;;4985206;28;20027;-63
2022/01/19 06:06:54;;;;;;;54.85;25.83;;;;;;;;;;4992422;28;20034;-64
2022/01/19 06:12:10;;;;;;;55.15;26.35;;;;;;;;;;4909330;29;20412;-64
2022/01/19 06:14:38;;;;;;;48.63;24.98;;;;;;;;;;4924781;29;20094;-64
2022/01/19 06:17:05;;;;;;;56.10;25.58;;;;;;;;;;4926401;29;20055;-64
2022/01/19 06:19:32;;;;;;;59.05;26.02;;;;;;;;;;4930866;29;20035;-64
2022/01/19 06:21:59;;;;;;;53.78;24.77;;;;;;;;;;4906970;29;20122;-64
2022/01/19 06:24:26;;;;;;;58.03;24.63;;;;;;;;;;4909437;29;20047;-64
2022/01/19 06:26:53;;;;;;;49.80;23.88;;;;;;;;;;4915564;29;20111;-64
2022/01/19 06:29:19;;;;;;;48.40;22.85;;;;;;;;;;4902421;29;20615;-64
2022/01/19 06:31:45;;;;;;;47.92;23.63;;;;;;;;;;4914594;29;20027;-64
2022/01/19 06:34:13;;;;;;;42.85;21.42;;;;;;;;;;4917131;29;20060;-64
2022/01/19 06:36:58;;;;;;;47.20;23.58;;;;;;;;;;4928165;29;20058;-64
2022/01/19 06:39:33;;;;;;;48.40;24.25;;;;;;;;;;4910006;29;20583;-64
2022/01/19 06:42:06;;;;;;;45.92;22.30;;;;;;;;;;4912553;29;20394;-64
2022/01/19 06:44:33;;;;;;;44.92;21.20;;;;;;;;;;4913931;29;20083;-64
2022/01/19 06:46:59;;;;;;;43.58;22.13;;;;;;;;;;4975536;28;20618;-64
2022/01/19 06:49:25;;;;;;;48.75;24.38;;;;;;;;;;4981753;28;20034;-64
2022/01/19 06:51:52;;;;;;;46.50;21.65;;;;;;;;;;4987554;28;20036;-64
2022/01/19 06:54:18;;;;;;;42.47;20.75;;;;;;;;;;5001262;28;20483;-64
2022/01/19 06:56:44;;;;;;;39.03;19.77;;;;;;;;;;4973698;28;20077;-63
2022/01/19 06:59:24;;;;;;;40.28;19.52;;;;;;;;;;4978545;28;20065;-73
2022/01/19 07:02:10;;;;;;;39.85;19.27;;;;;;;;;;5000573;28;20045;-74
2022/01/19 07:04:51;;;;;;;38.53;18.73;;;;;;;;;;4972439;28;20049;-73
2022/01/19 07:07:40;;;;;;;42.92;20.35;;;;;;;;;;4991122;28;20035;-75
2022/01/19 07:10:07;;;;;;;40.65;19.38;;;;;;;;;;5002137;28;20034;-65
2022/01/19 07:12:36;;;;;;;40.10;19.52;;;;;;;;;;4996859;28;20014;-65
2022/01/19 07:15:05;;;;;;;47.42;22.08;;;;;;;;;;4981402;28;20030;-65
2022/01/19 07:17:31;;;;;;;37.35;18.70;;;;;;;;;;4980720;28;20026;-65
2022/01/19 07:19:58;;;;;;;43.58;19.08;;;;;;;;;;4990685;28;20041;-64
2022/01/19 07:22:25;;;;;;;39.60;18.55;;;;;;;;;;4991528;28;20026;-66
2022/01/19 07:24:59;;;;;;;39.72;18.75;;;;;;;;;;4976489;28;20034;-66
2022/01/19 07:27:26;;;;;;;39.15;18.67;;;;;;;;;;4991707;28;20031;-67
2022/01/19 07:29:52;;;;;;;40.88;19.48;;;;;;;;;;4995536;28;20034;-67
2022/01/19 07:32:20;;;;;;;38.17;18.75;;;;;;;;;;4983622;28;20114;-66
2022/01/19 07:34:47;;;;;;;42.20;19.65;;;;;;;;;;4984601;28;20494;-66
2022/01/19 07:37:15;;;;;;;46.53;19.67;;;;;;;;;;4983038;28;20034;-66
2022/01/19 07:39:41;;;;;;;44.85;20.55;;;;;;;;;;4987621;28;20049;-66
2022/01/19 07:42:08;;;;;;;39.00;18.23;;;;;;;;;;4976363;28;20117;-66
2022/01/19 07:44:53;;;;;;;40.92;19.52;;;;;;;;;;4990947;28;20060;-66
2022/01/19 07:47:46;;;;;;;;;;;;;;;;;;4992247;28;20055;-66
2022/01/19 07:50:22;;;;;;;42.00;18.45;;;;;;;;;;4976583;28;19916;-66
2022/01/19 07:53:08;;;;;;;50.13;19.63;;;;;;;;;;4896788;29;20093;-68
2022/01/19 07:55:49;;;;;;;41.80;18.45;;;;;;;;;;4905349;29;20043;-69
2022/01/19 07:58:25;;;;;;;43.42;19.00;;;;;;;;;;4894219;29;20045;-68
2022/01/19 08:01:08;;;;;;;42.85;20.65;;;;;;;;;;4877973;29;20493;-68
2022/01/19 08:04:06;;;;;;;43.97;21.27;;;;;;;;;;4863074;29;20045;-68
2022/01/19 08:06:36;;;;;;;47.20;21.95;;;;;;;;;;4880254;29;20036;-68
2022/01/19 08:09:03;;;;;;;39.55;19.80;;;;;;;;;;4894281;29;20112;-68
2022/01/19 08:11:31;;;;;;;44.30;18.90;;;;;;;;;;4881109;29;20055;-68
2022/01/19 08:14:24;;;;;;;45.90;20.40;;;;;;;;;;4878940;29;20446;-68
2022/01/19 08:16:54;;;;;;;39.83;18.80;;;;;;;;;;4878352;29;20061;-68
2022/01/19 08:19:20;;;;;;;43.72;19.55;;;;;;;;;;4891004;29;20037;-68
2022/01/19 08:21:46;;;;;;;41.08;20.50;;;;;;;;;;4900970;29;20120;-68
2022/01/19 08:24:13;;;;;;;45.35;20.48;;;;;;;;;;4881283;29;20040;-68
2022/01/19 08:26:40;;;;;;;43.47;21.30;;;;;;;;;;4896619;29;20080;-68
2022/01/19 08:29:10;;;;;;;42.10;19.92;;;;;;;;;;4889470;28;20032;-68
2022/01/19 08:31:37;;;;;;;42.05;19.77;;;;;;;;;;4996308;28;20046;-68
2022/01/19 08:34:24;;;;;;;40.45;18.65;;;;;;;;;;5013891;28;20042;-68
2022/01/19 08:37:28;;;;;;;40.78;18.98;;;;;;;;;;4994966;28;20883;-68
2022/01/19 08:40:00;;;;;;;42.88;19.20;;;;;;;;;;4982785;28;20073;-68
2022/01/19 08:42:27;;;;;;;48.28;20.02;;;;;;;;;;4980545;28;20084;-68
2022/01/19 08:44:54;;;;;;;42.08;20.00;;;;;;;;;;4978751;28;20039;-68
2022/01/19 08:47:24;;;;;;;45.53;20.08;;;;;;;;;;4985508;28;20434;-68
2022/01/19 08:50:22;;;;;;;45.60;20.02;;;;;;;;;;4974452;28;20105;-68
2022/01/19 08:53:11;;;;;;;43.05;19.83;;;;;;;;;;4988752;28;20040;-68
2022/01/19 08:55:47;;;;;;;42.85;18.90;;;;;;;;;;4991366;28;20453;-68
2022/01/19 08:58:13;;;;;;;38.65;19.00;;;;;;;;;;4999407;28;20029;-68
2022/01/19 09:00:41;;;;;;;45.95;21.33;;;;;;;;;;4995478;28;20109;-68
2022/01/19 09:03:07;;;;;;;44.17;22.27;;;;;;;;;;4978667;28;20033;-67
2022/01/19 09:05:33;;;;;;;41.25;19.45;;;;;;;;;;4993458;28;20034;-67
2022/01/19 09:08:00;;;;;;;45.00;21.15;;;;;;;;;;4980117;28;20034;-68
2022/01/19 09:10:26;;;;;;;43.85;21.38;;;;;;;;;;4993134;28;20072;-68
2022/01/19 09:12:52;;;;;;;42.42;21.30;;;;;;;;;;4977815;28;20093;-68
2022/01/19 09:15:18;;;;;;;40.00;20.70;;;;;;;;;;5005124;28;20046;-68
2022/01/19 09:17:45;;;;;;;38.83;21.27;;;;;;;;;;4995466;28;20026;-68
2022/01/19 09:20:12;;;;;;;40.55;20.05;;;;;;;;;;4998559;28;20445;-68
2022/01/19 09:22:38;;;;;;;45.35;22.02;;;;;;;;;;4977073;28;20364;-68
2022/01/19 09:25:05;;;;;;;43.83;21.40;;;;;;;;;;4995731;28;20109;-68
2022/01/19 09:27:31;;;;;;;44.97;19.98;;;;;;;;;;4994387;28;20534;-68
2022/01/19 09:29:57;;;;;;;43.05;20.98;;;;;;;;;;4976686;28;20022;-68
2022/01/19 09:32:24;;;;;;;40.63;20.35;;;;;;;;;;4997419;28;20066;-68
2022/01/19 09:34:55;;;;;;;39.97;20.73;;;;;;;;;;4994877;28;20029;-67
2022/01/19 09:37:22;;;;;;;52.13;24.33;;;;;;;;;;4995237;28;20042;-67
2022/01/19 09:39:48;;;;;;;45.75;21.02;;;;;;;;;;4994235;28;20050;-67
2022/01/19 09:42:14;;;;;;;41.95;21.35;;;;;;;;;;4994567;28;20022;-67
2022/01/19 09:44:40;;;;;;;42.33;21.42;;;;;;;;;;4992843;28;20076;-67
2022/01/19 09:47:07;;;;;;;51.35;24.20;;;;;;;;;;4993907;28;20041;-67
2022/01/19 09:49:34;;;;;;;41.55;20.58;;;;;;;;;;4990535;28;20027;-67
2022/01/19 09:52:00;;;;;;;37.35;19.55;;;;;;;;;;4994403;28;20026;-67
2022/01/19 09:54:27;;;;;;;36.08;18.05;;;;;;;;;;5004878;28;20421;-67
2022/01/19 09:56:54;;;;;;;39.28;19.65;;;;;;;;;;4993507;28;20042;-67
2022/01/19 09:59:21;;;;;;;44.13;19.77;;;;;;;;;;4994833;28;20034;-67
2022/01/19 10:02:02;;;;;;;36.85;18.30;;;;;;;;;;4993553;28;20030;-67
2022/01/19 10:04:33;;;;;;;37.58;17.05;;;;;;;;;;4995281;28;20644;-67
2022/01/19 10:07:17;;;;;;;35.75;17.35;;;;;;;;;;4992363;28;20081;-68
2022/01/19 10:10:05;;;;;;;32.05;16.50;;;;;;;;;;4993338;28;20038;-68
2022/01/19 10:18:15;;;;;;;30.73;15.38;;;;;;;;;;4999377;28;20537;-68
2022/01/19 10:20:41;;;;;;;30.27;16.08;;;;;;;;;;4996751;28;20038;-68
2022/01/19 10:23:28;;;;;;;33.33;16.45;;;;;;;;;;4997969;28;20041;-68
2022/01/19 10:25:54;;;;;;;26.80;14.40;;;;;;;;;;4983675;28;20109;-68
2022/01/19 10:28:20;;;;;;;28.98;14.48;;;;;;;;;;4994246;28;20556;-68
2022/01/19 10:30:46;;;;;;;25.58;13.73;;;;;;;;;;4993350;28;20402;-68
2022/01/19 10:33:17;;;;;;;29.65;13.73;;;;;;;;;;4992807;28;20034;-68
2022/01/19 10:35:45;;;;;;;33.50;16.05;;;;;;;;;;5007082;28;20080;-67
2022/01/19 10:38:19;;;;;;;33.25;14.95;;;;;;;;;;4994414;28;20118;-67
2022/01/19 10:40:54;;;;;;;28.67;14.95;;;;;;;;;;4988984;28;20042;-68
2022/01/19 10:43:24;;;;;;;30.75;13.98;;;;;;;;;;4995860;28;20107;-68
2022/01/19 10:45:50;;;;;;;27.50;13.32;;;;;;;;;;4999411;28;20057;-68
2022/01/19 10:48:33;;;;;;;25.55;12.63;;;;;;;;;;4993546;28;20121;-68
2022/01/19 10:51:09;;;;;;;26.65;14.27;;;;;;;;;;4994752;28;20061;-68
2022/01/19 10:53:36;;;;;;;24.90;12.70;;;;;;;;;;4998181;28;20026;-68
2022/01/19 10:56:05;;;;;;;24.60;14.30;;;;;;;;;;5009434;28;20436;-69
2022/01/19 10:58:32;;;;;;;23.08;13.55;;;;;;;;;;4993300;28;20065;-68
2022/01/19 11:00:58;;;;;;;23.17;13.48;;;;;;;;;;4994555;28;20355;-68
2022/01/19 11:03:26;;;;;;;23.70;11.65;;;;;;;;;;5003461;28;20037;-68
2022/01/19 11:05:53;;;;;;;23.80;12.55;;;;;;;;;;5004844;28;20030;-68
2022/01/19 11:08:21;;;;;;;23.55;12.95;;;;;;;;;;5006521;28;20037;-68
2022/01/19 11:10:49;;;;;;;31.08;13.02;;;;;;;;;;4999501;28;20034;-68
2022/01/19 11:13:53;;;;;;;35.88;16.83;;;;;;;;;;4992629;28;20360;-68
2022/01/19 11:16:12;;;;;;;23.23;14.13;;;;;;;;;;4985522;28;20093;-68
2022/01/19 11:18:39;;;;;;;25.05;12.90;;;;;;;;;;4991799;28;20038;-68
2022/01/19 11:21:08;;;;;;;26.80;12.75;;;;;;;;;;4991707;28;20045;-68
2022/01/19 11:23:50;;;;;;;25.50;12.60;;;;;;;;;;4988455;28;21292;-68
2022/01/19 11:26:17;;;;;;;29.30;13.15;;;;;;;;;;4986584;28;20022;-68
2022/01/19 11:28:46;;;;;;;21.92;12.77;;;;;;;;;;4990230;28;20124;-68
2022/01/19 11:31:24;;;;;;;23.83;13.18;;;;;;;;;;4971314;28;20038;-68
2022/01/19 11:33:52;;;;;;;31.80;13.43;;;;;;;;;;4992054;28;20057;-68
2022/01/19 11:36:23;;;;;;;23.27;12.57;;;;;;;;;;4991992;28;20042;-68
2022/01/19 11:39:09;;;;;;;30.27;14.85;;;;;;;;;;4992401;28;20042;-68
2022/01/19 11:41:37;;;;;;;31.58;13.63;;;;;;;;;;4971832;28;20042;-68
2022/01/19 11:44:05;;;;;;;25.20;12.20;;;;;;;;;;4990881;28;20037;-68
2022/01/19 11:46:32;;;;;;;23.73;11.50;;;;;;;;;;4991456;28;20386;-68
2022/01/19 11:48:59;;;;;;;26.75;13.23;;;;;;;;;;4972699;28;20461;-68
2022/01/19 11:51:34;;;;;;;26.05;11.85;;;;;;;;;;4996284;28;20076;-68
2022/01/19 11:54:03;;;;;;;22.60;11.38;;;;;;;;;;4995266;28;20113;-68
2022/01/19 11:56:30;;;;;;;26.58;13.18;;;;;;;;;;4998383;28;20037;-68
2022/01/19 11:59:07;;;;;;;23.65;13.98;;;;;;;;;;4978023;28;20062;-68
2022/01/19 12:01:33;;;;;;;26.17;13.70;;;;;;;;;;5002997;28;20036;-67
2022/01/19 12:04:13;;;;;;;26.67;14.27;;;;;;;;;;4992025;28;20022;-67
2022/01/19 12:06:39;;;;;;;24.80;12.70;;;;;;;;;;4992673;28;20109;-67
2022/01/19 12:09:07;;;;;;;24.05;12.95;;;;;;;;;;4989828;28;20438;-67
2022/01/19 12:11:36;;;;;;;26.00;13.40;;;;;;;;;;4992263;28;20076;-67
2022/01/19 12:19:08;;;;;;;28.48;16.33;;;;;;;;;;4992152;28;20042;-67
2022/01/19 12:21:34;;;;;;;25.05;13.15;;;;;;;;;;4993384;28;20422;-67
2022/01/19 12:24:16;;;;;;;23.05;12.32;;;;;;;;;;4994058;28;20037;-67
2022/01/19 12:26:57;;;;;;;27.65;13.38;;;;;;;;;;4993254;28;20030;-67
2022/01/19 12:29:38;;;;;;;21.77;12.95;;;;;;;;;;4998486;28;20025;-67
2022/01/19 12:32:04;;;;;;;21.05;12.50;;;;;;;;;;4991511;28;20045;-67
2022/01/19 12:34:41;;;;;;;19.00;11.50;;;;;;;;;;4977606;28;20038;-67
2022/01/19 12:37:08;;;;;;;18.98;11.18;;;;;;;;;;4995966;28;20453;-67
2022/01/19 12:39:35;;;;;;;20.25;11.00;;;;;;;;;;5002295;28;20053;-67
2022/01/19 12:42:01;;;;;;;18.63;10.38;;;;;;;;;;4999794;28;20057;-67
2022/01/19 12:44:41;;;;;;;28.33;15.27;;;;;;;;;;4992316;28;20030;-67
2022/01/19 12:47:25;;;;;;;22.00;10.70;;;;;;;;;;4993191;28;20114;-67
2022/01/19 12:49:52;;;;;;;16.23;9.55;;;;;;;;;;4993177;28;20430;-67
2022/01/19 12:52:19;;;;;;;30.60;14.95;;;;;;;;;;4979489;28;20030;-67
2022/01/19 12:54:45;;;;;;;24.80;13.95;;;;;;;;;;5004226;28;20104;-67
2022/01/19 12:57:15;;;;;;;20.67;11.45;;;;;;;;;;4993179;28;20034;-67
2022/01/19 12:59:42;;;;;;;19.52;10.55;;;;;;;;;;4991899;28;20045;-67
2022/01/19 13:02:08;;;;;;;22.33;12.13;;;;;;;;;;4987699;28;20046;-67
2022/01/19 13:04:36;;;;;;;20.95;11.57;;;;;;;;;;4991336;28;20088;-67
2022/01/19 13:07:21;;;;;;;26.40;10.63;;;;;;;;;;4987819;28;20475;-67
2022/01/19 13:12:39;;;;;;;23.38;12.75;;;;;;;;;;5003728;28;20033;-67
2022/01/19 13:15:06;;;;;;;25.10;14.98;;;;;;;;;;5001552;28;20563;-67
2022/01/19 13:17:42;;;;;;;28.88;14.82;;;;;;;;;;4995388;28;20042;-67
2022/01/19 13:20:14;;;;;;;25.75;14.75;;;;;;;;;;4998975;28;20034;-67
2022/01/19 13:22:58;;;;;;;20.85;12.32;;;;;;;;;;4976850;28;20039;-67
2022/01/19 13:25:29;;;;;;;20.77;12.32;;;;;;;;;;4992169;28;20030;-67
2022/01/19 13:27:59;;;;;;;24.90;14.55;;;;;;;;;;4994207;28;20114;-67
2022/01/19 13:30:29;;;;;;;24.42;15.15;;;;;;;;;;4993133;28;20030;-67
2022/01/19 13:32:55;;;;;;;24.27;12.65;;;;;;;;;;4987505;28;20034;-67
2022/01/19 13:35:23;;;;;;;23.10;12.30;;;;;;;;;;4990876;28;20022;-67
2022/01/19 13:37:58;;;;;;;27.92;16.13;;;;;;;;;;4996974;28;20482;-67
2022/01/19 13:40:33;;;;;;;30.58;17.95;;;;;;;;;;4989860;28;20051;-67
2022/01/19 13:43:02;;;;;;;35.65;18.52;;;;;;;;;;4994448;28;20030;-67
2022/01/19 13:50:44;;;;;;;20.35;11.68;;;;;;;;;;4995393;28;20461;-67
2022/01/19 13:53:11;;;;;;;25.35;12.60;;;;;;;;;;4995015;28;20042;-67
2022/01/19 13:55:37;;;;;;;28.65;13.20;;;;;;;;;;4999775;28;20105;-67
2022/01/19 13:58:13;;;;;;;26.85;12.30;;;;;;;;;;5002160;28;20049;-67
2022/01/19 14:00:54;;;;;;;26.65;12.85;;;;;;;;;;4989185;28;20035;-67
2022/01/19 14:03:21;;;;;;;26.20;12.95;;;;;;;;;;4995578;28;20066;-67
2022/01/19 14:05:48;;;;;;;23.60;13.15;;;;;;;;;;4994070;28;20026;-67
2022/01/19 14:08:15;;;;;;;25.88;13.73;;;;;;;;;;5005153;28;20026;-67
2022/01/19 14:10:41;;;;;;;26.85;13.48;;;;;;;;;;5003058;28;20053;-67
2022/01/19 14:13:25;;;;;;;29.13;13.38;;;;;;;;;;4998634;28;20034;-67
2022/01/19 14:15:52;;;;;;;28.85;14.68;;;;;;;;;;4994343;28;20125;-68
2022/01/19 14:18:18;;;;;;;27.15;13.32;;;;;;;;;;4978205;28;20194;-67
2022/01/19 14:20:44;;;;;;;22.48;12.77;;;;;;;;;;5000994;28;20030;-67
2022/01/19 14:23:15;;;;;;;23.35;13.15;;;;;;;;;;4995044;28;20479;-67
2022/01/19 14:25:42;;;;;;;26.15;13.00;;;;;;;;;;5009113;28;20030;-67
2022/01/19 14:28:15;;;;;;;23.08;11.43;;;;;;;;;;4999746;28;20026;-67
2022/01/19 14:30:42;;;;;;;28.05;11.65;;;;;;;;;;4985721;28;20113;-67
2022/01/19 14:33:09;;;;;;;46.40;13.45;;;;;;;;;;5003072;28;20510;-67
2022/01/19 14:35:41;;;;;;;38.35;14.30;;;;;;;;;;5001307;28;20085;-67
2022/01/19 14:38:10;;;;;;;34.13;14.45;;;;;;;;;;4985735;28;20042;-67
2022/01/19 14:40:57;;;;;;;29.40;11.55;;;;;;;;;;5001436;28;20100;-67
2022/01/19 14:43:26;;;;;;;26.67;9.15;;;;;;;;;;4995699;28;20356;-68
2022/01/19 14:46:05;;;;;;;81.47;38.22;;;;;;;;;;4989821;28;20030;-71
2022/01/19 14:48:37;;;;;;;35.75;10.60;;;;;;;;;;4991190;28;20041;-79
2022/01/19 14:51:23;;;;;;;21.42;7.78;;;;;;;;;;4992586;28;20482;-80
2022/01/19 14:53:50;;;;;;;27.17;8.30;;;;;;;;;;4991752;28;20030;-77
2022/01/19 14:56:16;;;;;;;22.08;6.72;;;;;;;;;;4988450;28;20022;-82
2022/01/19 14:58:42;;;;;;;25.20;7.03;;;;;;;;;;4990449;28;20034;-81
2022/01/19 15:01:08;;;;;;;43.95;15.88;;;;;;;;;;4996331;28;20026;-77
2022/01/19 15:03:34;;;;;;;19.25;5.13;;;;;;;;;;4990777;28;20438;-79
2022/01/19 15:06:01;;;;;;;11.80;3.55;;;;;;;;;;4986085;28;20035;-80
2022/01/19 15:08:27;;;;;;;16.85;3.03;;;;;;;;;;4980801;28;20022;-75
2022/01/19 15:10:53;;;;;;;11.52;3.03;;;;;;;;;;4988570;28;20110;-80
2022/01/19 15:13:19;;;;;;;9.13;3.55;;;;;;;;;;4991579;28;20038;-77
2022/01/19 15:15:45;;;;;;;16.25;3.45;;;;;;;;;;4976183;28;20399;-75
2022/01/19 15:18:11;;;;;;;14.75;2.97;;;;;;;;;;4988236;28;20038;-76
2022/01/19 15:20:39;;;;;;;11.00;2.78;;;;;;;;;;4991533;28;20045;-78
2022/01/19 15:23:05;;;;;;;22.83;3.80;;;;;;;;;;4990986;28;20035;-80
2022/01/19 15:25:36;;;;;;;25.17;3.30;;;;;;;;;;4995847;28;20026;-73
2022/01/19 15:28:04;;;;;;;14.40;3.95;;;;;;;;;;4989232;28;20026;-79
2022/01/19 15:30:32;;;;;;;22.25;4.60;;;;;;;;;;4994440;28;20030;-83
2022/01/19 15:32:58;;;;;;;11.60;3.63;;;;;;;;;;5002278;28;20026;-81
2022/01/19 15:35:25;;;;;;;24.10;3.40;;;;;;;;;;4985145;28;20030;-76
2022/01/19 15:37:51;;;;;;;19.75;3.10;;;;;;;;;;4987143;28;20026;-75
2022/01/19 15:40:18;;;;;;;19.80;3.15;;;;;;;;;;5000064;28;20054;-77
2022/01/19 15:42:45;;;;;;;13.27;2.95;;;;;;;;;;4990474;28;20038;-67
2022/01/19 15:45:12;;;;;;;16.33;3.63;;;;;;;;;;4978881;28;20041;-79
2022/01/19 15:47:39;;;;;;;15.77;4.22;;;;;;;;;;4988032;28;20101;-77
2022/01/19 15:50:06;;;;;;;21.90;4.20;;;;;;;;;;4994957;28;20030;-80
2022/01/19 15:52:32;;;;;;;21.58;3.35;;;;;;;;;;4995639;28;20026;-79
2022/01/19 15:54:58;;;;;;;14.70;2.90;;;;;;;;;;4993664;28;20041;-77
2022/01/19 15:57:24;;;;;;;20.25;3.22;;;;;;;;;;4952638;28;20092;-79
2022/01/19 15:59:51;;;;;;;11.20;2.60;;;;;;;;;;4969852;28;20088;-77
2022/01/19 16:02:17;;;;;;;14.40;2.70;;;;;;;;;;5000911;28;20025;-73
2022/01/19 16:04:43;;;;;;;16.42;3.88;;;;;;;;;;4993466;28;20084;-78
2022/01/19 16:07:10;;;;;;;17.40;4.47;;;;;;;;;;4971450;28;20337;-79
2022/01/19 16:09:36;;;;;;;16.73;3.10;;;;;;;;;;4984874;28;20029;-75
2022/01/19 16:12:03;;;;;;;10.25;2.78;;;;;;;;;;4988586;28;20030;-81
2022/01/19 16:14:29;;;;;;;13.05;2.97;;;;;;;;;;4984460;28;20031;-79
2022/01/19 16:16:55;;;;;;;19.15;3.38;;;;;;;;;;4988974;28;20063;-75
2022/01/19 16:19:22;;;;;;;14.80;3.55;;;;;;;;;;4987264;28;20019;-81
2022/01/19 16:21:49;;;;;;;12.90;3.25;;;;;;;;;;4987144;28;20026;-79